Time;durP1;ratioP1;P1;durP2;ratioP2;P2;SDS_P1;SDS_P2;PMS_P1;PMS_P2;Temp;Humidity;BMP_temperature;BMP_pressure;BME280_temperature;BME280_humidity;BME280_pressure;Samples;Min_cycle;Max_cycle;Signal;HPM_P1;HPM_P2
2022/06/11 00:01:12;;;;;;;0.70;0.70;;;23.70;59.40;;;;;;5052633;28;20998;-81
2022/06/11 00:03:39;;;;;;;0.70;0.70;;;24.00;53.50;;;;;;5052895;28;20430;-81
2022/06/11 00:06:05;;;;;;;1.07;0.67;;;;;;;;;;5052766;28;20521;-81
2022/06/11 00:08:31;;;;;;;1.10;1.00;;;;;;;;;;5052989;28;20410;-81
2022/06/11 00:10:57;;;;;;;1.33;0.83;;;;;;;;;;5052554;28;20606;-81
2022/06/11 00:13:24;;;;;;;0.70;0.70;;;;;;;;;;5053448;28;20433;-81
2022/06/11 00:15:52;;;;;;;0.70;0.70;;;24.10;59.60;;;;;;5035213;28;20773;-81
2022/06/11 00:18:20;;;;;;;1.03;0.93;;;23.90;75.10;;;;;;5053046;28;20443;-81
2022/06/11 00:20:46;;;;;;;1.37;0.80;;;;;;;;;;5052928;28;20438;-81
2022/06/11 00:23:12;;;;;;;0.80;0.80;;;23.90;53.40;;;;;;5052986;28;20771;-81
2022/06/11 00:25:38;;;;;;;0.80;0.80;;;;;;;;;;5052674;28;20437;-81
2022/06/11 00:28:06;;;;;;;2.20;1.20;;;24.00;53.40;;;;;;5051539;28;20899;-81
2022/06/11 00:30:32;;;;;;;1.17;0.77;;;23.80;55.20;;;;;;5034564;28;20982;-81
2022/06/11 00:32:58;;;;;;;0.73;0.73;;;;;;;;;;5034911;28;20506;-81
2022/06/11 00:35:26;;;;;;;5.27;0.63;;;23.90;53.40;;;;;;5051656;28;20411;-81
2022/06/11 00:37:52;;;;;;;0.73;0.73;;;24.00;67.90;;;;;;5052754;28;20403;-81
2022/06/11 00:40:20;;;;;;;0.90;0.90;;;24.00;53.50;;;;;;5052940;28;20879;-81
2022/06/11 00:42:46;;;;;;;0.77;0.77;;;;;;;;;;5053227;28;20410;-81
2022/06/11 00:45:12;;;;;;;1.00;0.70;;;;;;;;;;5052577;28;20423;-81
2022/06/11 00:47:38;;;;;;;0.80;0.80;;;23.80;62.50;;;;;;5052802;28;20511;-81
2022/06/11 00:50:23;;;;;;;2.03;1.43;;;24.00;77.00;;;;;;5053066;28;20505;-81
2022/06/11 00:52:49;;;;;;;0.77;0.60;;;;;;;;;;5053163;28;20737;-82
2022/06/11 00:55:21;;;;;;;0.80;0.70;;;24.00;58.60;;;;;;5053983;28;20407;-81
2022/06/11 00:57:55;;;;;;;0.87;0.80;;;23.70;74.20;;;;;;5053862;28;20786;-82
2022/06/11 01:00:33;;;;;;;1.57;0.80;;;23.90;53.30;;;;;;5053575;28;20435;-81
2022/06/11 01:03:00;;;;;;;0.80;0.80;;;23.80;53.30;;;;;;5054092;28;20514;-81
2022/06/11 01:05:31;;;;;;;0.80;0.80;;;23.90;53.40;;;;;;5052905;28;20797;-82
2022/06/11 01:08:02;;;;;;;0.90;0.90;;;23.80;69.30;;;;;;5054515;28;20431;-81
2022/06/11 01:11:06;;;;;;;0.80;0.80;;;23.90;53.40;;;;;;5054932;28;20579;-81
2022/06/11 01:13:43;;;;;;;0.80;0.70;;;23.70;70.40;;;;;;5007243;28;20427;-81
2022/06/11 01:16:37;;;;;;;1.30;0.77;;;23.90;53.30;;;;;;5055169;28;20422;-81
2022/06/11 01:19:19;;;;;;;0.67;0.60;;;23.90;57.50;;;;;;5054864;28;20486;-82
2022/06/11 01:22:09;;;;;;;1.43;0.80;;;23.70;76.60;;;;;;5054152;28;20442;-81
2022/06/11 01:24:35;;;;;;;0.97;0.97;;;;;;;;;;5053597;28;20534;-81
2022/06/11 01:27:14;;;;;;;1.17;1.07;;;24.00;58.80;;;;;;5053716;28;20702;-81
2022/06/11 01:29:47;;;;;;;0.77;0.77;;;;;;;;;;5053126;28;20502;-81
2022/06/11 01:32:40;;;;;;;1.50;1.10;;;23.90;53.20;;;;;;5053653;28;20427;-81
2022/06/11 01:35:27;;;;;;;1.23;1.00;;;23.70;69.10;;;;;;5054107;28;20926;-81
2022/06/11 01:38:03;;;;;;;1.17;0.50;;;22.30;52.40;;;;;;5054165;28;20753;-82
2022/06/11 01:40:59;;;;;;;1.20;1.10;;;23.90;53.10;;;;;;5053760;28;20460;-81
2022/06/11 01:43:33;;;;;;;1.07;0.90;;;23.90;53.30;;;;;;5051399;28;20404;-81
2022/06/11 01:46:00;;;;;;;1.10;0.90;;;23.90;54.90;;;;;;5049905;28;20921;-81
2022/06/11 01:48:28;;;;;;;3.03;1.27;;;23.60;76.60;;;;;;5053589;28;20675;-81
2022/06/11 01:51:20;;;;;;;0.73;0.70;;;24.00;61.00;;;;;;5053278;28;20458;-81
2022/06/11 01:54:17;;;;;;;0.83;0.83;;;23.90;56.70;;;;;;5054088;28;20464;-81
2022/06/11 01:56:54;;;;;;;1.40;1.30;;;23.90;53.10;;;;;;5053380;28;20490;-81
2022/06/11 01:59:37;;;;;;;0.80;0.80;;;24.00;56.80;;;;;;5053829;28;20413;-81
2022/06/11 02:02:20;;;;;;;0.90;0.70;;;23.90;53.10;;;;;;5053616;28;20844;-81
2022/06/11 02:04:58;;;;;;;0.80;0.80;;;23.90;53.40;;;;;;5053428;28;20414;-81
2022/06/11 02:07:35;;;;;;;0.80;0.70;;;23.50;59.30;;;;;;5053774;28;20422;-81
2022/06/11 02:10:23;;;;;;;4.10;1.13;;;23.90;53.20;;;;;;5054038;28;20903;-81
2022/06/11 02:12:58;;;;;;;0.90;0.90;;;23.80;53.10;;;;;;5053992;28;20402;-81
2022/06/11 02:15:27;;;;;;;1.00;0.90;;;23.60;57.00;;;;;;5053172;28;20437;-81
2022/06/11 02:18:12;;;;;;;7.33;0.90;;;24.00;74.20;;;;;;5051815;28;20434;-81
2022/06/11 02:20:43;;;;;;;1.33;0.80;;;23.80;59.40;;;;;;5050055;28;21154;-81
2022/06/11 02:23:19;;;;;;;0.77;0.77;;;23.80;74.40;;;;;;5032647;28;20431;-81
2022/06/11 02:25:51;;;;;;;4.13;0.97;;;23.80;53.30;;;;;;5047534;28;20427;-81
2022/06/11 02:28:25;;;;;;;0.70;0.70;;;23.60;76.80;;;;;;5050576;28;20407;-81
2022/06/11 02:30:53;;;;;;;2.47;0.93;;;24.20;57.60;;;;;;5050053;28;20869;-81
2022/06/11 02:33:20;;;;;;;0.77;0.77;;;23.60;73.60;;;;;;5050123;28;20411;-81
2022/06/11 02:36:00;;;;;;;1.20;0.60;;;23.80;73.60;;;;;;5050413;28;20407;-81
2022/06/11 02:38:27;;;;;;;0.90;0.80;;;23.70;55.30;;;;;;5050576;28;20452;-81
2022/06/11 02:41:06;;;;;;;1.40;0.90;;;24.00;71.40;;;;;;5050627;28;20434;-82
2022/06/11 02:43:32;;;;;;;0.90;0.90;;;23.30;53.10;;;;;;5048605;28;20506;-81
2022/06/11 02:45:58;;;;;;;0.90;0.90;;;23.80;53.30;;;;;;5032509;28;20412;-81
2022/06/11 02:48:24;;;;;;;0.77;0.73;;;;;;;;;;5052338;28;20493;-81
2022/06/11 02:50:50;;;;;;;0.70;0.70;;;24.00;76.90;;;;;;5052573;28;20461;-81
2022/06/11 02:53:17;;;;;;;0.70;0.70;;;23.80;76.50;;;;;;5052314;28;20904;-81
2022/06/11 02:55:45;;;;;;;0.60;0.60;;;23.90;71.00;;;;;;5051874;28;20662;-81
2022/06/11 02:58:11;;;;;;;0.63;0.63;;;;;;;;;;5051853;28;20531;-81
2022/06/11 03:00:40;;;;;;;1.27;0.90;;;23.90;54.30;;;;;;5053507;28;20489;-81
2022/06/11 03:03:07;;;;;;;0.80;0.70;;;;;;;;;;5055636;28;20410;-81
2022/06/11 03:05:34;;;;;;;1.10;0.80;;;23.80;53.30;;;;;;5054330;28;20422;-81
2022/06/11 03:08:01;;;;;;;1.27;0.77;;;23.90;53.70;;;;;;5055555;28;20434;-81
2022/06/11 03:10:27;;;;;;;0.93;0.70;;;;;;;;;;5055535;28;20882;-81
2022/06/11 03:12:54;;;;;;;0.83;0.80;;;23.80;64.40;;;;;;5055359;28;20431;-81
2022/06/11 03:15:22;;;;;;;0.73;0.73;;;23.80;53.20;;;;;;5056401;28;20427;-81
2022/06/11 03:17:48;;;;;;;0.90;0.80;;;23.90;74.60;;;;;;5055773;28;20506;-81
2022/06/11 03:20:16;;;;;;;0.80;0.80;;;24.00;76.50;;;;;;5055749;28;20458;-81
2022/06/11 03:22:42;;;;;;;1.33;0.83;;;;;;;;;;5055889;28;20418;-81
2022/06/11 03:25:09;;;;;;;0.70;0.70;;;23.70;63.90;;;;;;5056540;28;20515;-81
2022/06/11 03:27:38;;;;;;;1.40;0.70;;;23.80;53.10;;;;;;5056196;28;20415;-81
2022/06/11 03:30:04;;;;;;;1.03;1.03;;;23.80;53.00;;;;;;5055794;28;20537;-81
2022/06/11 03:32:30;;;;;;;1.43;0.90;;;;;;;;;;5055254;28;20439;-82
2022/06/11 03:34:56;;;;;;;1.90;0.90;;;;;;;;;;5055597;28;20562;-81
2022/06/11 03:37:22;;;;;;;0.77;0.77;;;;;;;;;;5055753;28;20417;-81
2022/06/11 03:39:48;;;;;;;0.87;0.87;;;;;;;;;;5055629;28;20475;-82
2022/06/11 03:42:14;;;;;;;1.13;0.90;;;;;;;;;;5055264;28;20462;-81
2022/06/11 03:44:40;;;;;;;1.07;0.93;;;;;;;;;;5042702;28;20416;-81
2022/06/11 03:47:06;;;;;;;4.20;0.90;;;23.80;52.80;;;;;;5044692;28;20435;-81
2022/06/11 03:49:33;;;;;;;2.63;0.93;;;;;;;;;;5055620;28;20418;-82
2022/06/11 03:51:59;;;;;;;0.93;0.90;;;;;;;;;;5037714;28;20798;-81
2022/06/11 03:54:24;;;;;;;1.23;0.70;;;23.60;65.30;;;;;;5055350;28;20411;-81
2022/06/11 03:56:50;;;;;;;0.70;0.70;;;23.30;52.70;;;;;;5039371;28;20445;-81
2022/06/11 03:59:17;;;;;;;1.03;0.77;;;23.80;52.90;;;;;;5057104;28;20688;-81
2022/06/11 04:01:44;;;;;;;1.47;0.70;;;23.80;52.90;;;;;;5055734;28;20558;-81
2022/06/11 04:04:13;;;;;;;0.60;0.60;;;23.80;52.90;;;;;;5038229;28;20442;-81
2022/06/11 04:06:45;;;;;;;2.03;0.60;;;23.80;52.60;;;;;;5037266;28;20450;-81
2022/06/11 04:09:21;;;;;;;0.97;0.73;;;23.80;52.90;;;;;;5055370;28;20480;-81
2022/06/11 04:11:46;;;;;;;0.73;0.73;;;23.60;62.50;;;;;;5054500;28;21101;-81
2022/06/11 04:14:13;;;;;;;0.63;0.63;;;23.60;56.20;;;;;;5055642;28;20502;-82
2022/06/11 04:16:50;;;;;;;1.10;1.00;;;23.80;54.00;;;;;;5055803;28;20314;-81
2022/06/11 04:19:22;;;;;;;1.00;0.60;;;23.80;53.60;;;;;;5055066;28;20422;-81
2022/06/11 04:21:49;;;;;;;1.73;1.03;;;23.70;52.60;;;;;;5054228;28;20454;-81
2022/06/11 04:24:15;;;;;;;1.23;1.10;;;;;;;;;;5054694;28;20504;-81
2022/06/11 04:26:44;;;;;;;0.73;0.70;;;23.70;52.90;;;;;;5054990;28;20585;-81
2022/06/11 04:29:12;;;;;;;1.20;0.80;;;23.70;52.60;;;;;;5055350;28;20497;-81
2022/06/11 04:31:38;;;;;;;0.80;0.80;;;;;;;;;;5055227;28;20466;-82
2022/06/11 04:34:04;;;;;;;0.67;0.67;;;23.50;71.70;;;;;;5054925;28;20437;-82
2022/06/11 04:36:33;;;;;;;1.00;0.80;;;23.40;52.70;;;;;;5055153;28;20407;-81
2022/06/11 04:38:59;;;;;;;1.13;0.57;;;;;;;;;;5055305;28;20407;-81
2022/06/11 04:41:25;;;;;;;0.87;0.87;;;;;;;;;;5056013;28;20439;-81
2022/06/11 04:43:51;;;;;;;1.17;0.63;;;22.90;57.10;;;;;;5055756;28;20461;-81
2022/06/11 04:46:18;;;;;;;0.70;0.70;;;23.20;52.40;;;;;;5056000;28;20415;-81
2022/06/11 04:48:44;;;;;;;2.73;0.97;;;23.70;65.70;;;;;;5055968;28;20263;-82
2022/06/11 04:51:11;;;;;;;0.97;0.97;;;23.50;75.50;;;;;;5055492;28;20961;-81
2022/06/11 04:53:37;;;;;;;0.70;0.70;;;;;;;;;;5056038;28;20496;-81
2022/06/11 04:56:03;;;;;;;0.83;0.80;;;23.90;60.50;;;;;;5055479;28;20399;-81
2022/06/11 04:58:29;;;;;;;0.67;0.67;;;23.50;74.30;;;;;;5056529;28;20423;-81
2022/06/11 05:00:55;;;;;;;1.17;1.00;;;;;;;;;;5057564;28;20447;-80
2022/06/11 05:03:21;;;;;;;1.20;0.73;;;;;;;;;;5059541;28;20426;-82
2022/06/11 05:05:47;;;;;;;0.70;0.70;;;23.70;52.80;;;;;;5054637;28;20741;-81
2022/06/11 05:08:14;;;;;;;0.77;0.77;;;23.70;52.60;;;;;;5053125;28;20418;-81
2022/06/11 05:10:40;;;;;;;1.00;1.00;;;;;;;;;;5052703;28;20474;-81
2022/06/11 05:13:08;;;;;;;1.37;0.73;;;23.80;74.30;;;;;;5052978;28;20456;-82
2022/06/11 05:15:34;;;;;;;2.87;0.80;;;23.70;54.40;;;;;;5052945;28;20417;-81
2022/06/11 05:18:00;;;;;;;1.93;1.13;;;;;;;;;;5052905;28;20765;-82
2022/06/11 05:20:26;;;;;;;1.20;0.70;;;23.50;74.30;;;;;;5052643;28;20488;-81
2022/06/11 05:22:52;;;;;;;0.80;0.53;;;23.80;73.00;;;;;;5051636;28;20422;-81
2022/06/11 05:25:19;;;;;;;2.13;0.60;;;23.60;73.10;;;;;;5052520;28;20180;-81
2022/06/11 05:27:46;;;;;;;1.23;1.23;;;23.70;58.40;;;;;;5052469;28;20179;-81
2022/06/11 05:30:25;;;;;;;2.40;0.90;;;23.80;63.40;;;;;;5052089;28;20502;-81
2022/06/11 05:32:51;;;;;;;1.20;0.70;;;;;;;;;;5052582;28;20441;-81
2022/06/11 05:35:24;;;;;;;0.67;0.67;;;23.80;55.60;;;;;;5052127;28;20415;-81
2022/06/11 05:37:51;;;;;;;2.30;0.70;;;23.70;52.70;;;;;;5051523;28;20415;-82
2022/06/11 05:40:23;;;;;;;0.93;0.80;;;23.90;52.70;;;;;;5051359;28;20912;-81
2022/06/11 05:42:49;;;;;;;0.90;0.60;;;;;;;;;;5051019;28;20529;-81
2022/06/11 05:45:42;;;;;;;0.70;0.70;;;23.80;75.30;;;;;;5050897;28;20461;-81
2022/06/11 05:48:09;;;;;;;0.90;0.90;;;23.70;52.60;;;;;;5045341;28;20961;-81
2022/06/11 05:50:39;;;;;;;0.83;0.83;;;23.70;52.60;;;;;;5050690;28;20515;-80
2022/06/11 05:53:06;;;;;;;1.10;0.93;;;23.30;52.80;;;;;;5048929;28;20886;-82
2022/06/11 05:55:34;;;;;;;0.63;0.63;;;23.70;54.60;;;;;;5051012;28;20418;-81
2022/06/11 05:58:03;;;;;;;0.77;0.77;;;23.80;69.00;;;;;;5050607;28;20772;-81
2022/06/11 06:00:29;;;;;;;1.07;0.87;;;;;;;;;;5049070;28;20538;-81
2022/06/11 06:02:55;;;;;;;0.90;0.73;;;23.60;75.30;;;;;;5050614;28;20454;-81
2022/06/11 06:05:27;;;;;;;0.70;0.70;;;23.80;73.60;;;;;;5050635;28;20890;-81
2022/06/11 06:07:53;;;;;;;0.90;0.60;;;23.80;64.50;;;;;;5050333;28;20192;-81
2022/06/11 06:10:20;;;;;;;1.13;0.70;;;22.80;52.60;;;;;;5050304;28;20454;-81
2022/06/11 06:12:46;;;;;;;1.23;1.13;;;;;;;;;;5050047;28;20500;-81
2022/06/11 06:15:19;;;;;;;0.73;0.73;;;23.50;65.70;;;;;;5050628;28;20799;-81
2022/06/11 06:17:45;;;;;;;2.63;0.83;;;;;;;;;;5050231;28;20458;-81
2022/06/11 06:20:14;;;;;;;12.63;1.63;;;23.80;54.50;;;;;;5049207;28;20450;-81
2022/06/11 06:22:41;;;;;;;0.70;0.70;;;23.70;52.80;;;;;;5050423;28;20555;-81
2022/06/11 06:25:07;;;;;;;0.90;0.87;;;23.70;60.20;;;;;;5050641;28;20488;-81
2022/06/11 06:27:32;;;;;;;0.63;0.63;;;23.90;75.00;;;;;;5050562;28;20419;-81
2022/06/11 06:29:59;;;;;;;1.10;1.00;;;;;;;;;;5050589;28;20470;-81
2022/06/11 06:32:25;;;;;;;0.70;0.60;;;;;;;;;;5050471;28;20169;-81
2022/06/11 06:34:51;;;;;;;0.80;0.80;;;;;;;;;;5053726;28;20419;-81
2022/06/11 06:37:17;;;;;;;1.80;1.00;;;;;;;;;;5057005;28;20429;-81
2022/06/11 06:39:43;;;;;;;0.80;0.70;;;;;;;;;;5055892;28;20419;-81
2022/06/11 06:42:09;;;;;;;0.90;0.90;;;23.80;68.30;;;;;;5056831;28;20426;-81
2022/06/11 06:44:34;;;;;;;1.10;0.70;;;23.80;72.80;;;;;;5057128;28;20420;-81
2022/06/11 06:47:00;;;;;;;0.80;0.77;;;23.80;60.10;;;;;;5057828;28;20524;-81
2022/06/11 06:49:26;;;;;;;1.70;0.80;;;;;;;;;;5058682;28;20176;-81
2022/06/11 06:51:52;;;;;;;0.73;0.73;;;23.80;62.30;;;;;;5057385;28;20206;-81
2022/06/11 06:54:18;;;;;;;0.70;0.70;;;;;;;;;;5059558;28;20418;-81
2022/06/11 06:56:44;;;;;;;0.90;0.90;;;;;;;;;;5059036;28;20176;-81
2022/06/11 06:59:10;;;;;;;0.50;0.50;;;23.10;52.80;;;;;;5058659;28;20444;-81
2022/06/11 07:01:36;;;;;;;0.90;0.80;;;;;;;;;;5058181;28;20431;-81
2022/06/11 07:04:03;;;;;;;1.43;0.80;;;23.60;53.10;;;;;;5058424;28;20407;-81
2022/06/11 07:06:31;;;;;;;0.80;0.70;;;23.60;53.10;;;;;;5058550;28;20491;-81
2022/06/11 07:08:57;;;;;;;1.50;0.67;;;;;;;;;;5059034;28;20501;-81
2022/06/11 07:11:23;;;;;;;0.60;0.60;;;;;;;;;;5058743;28;20548;-81
2022/06/11 07:13:49;;;;;;;1.20;0.63;;;;;;;;;;5058314;28;20410;-81
2022/06/11 07:16:19;;;;;;;0.67;0.67;;;23.60;53.10;;;;;;5058743;28;20837;-81
2022/06/11 07:18:51;;;;;;;0.73;0.73;;;23.70;64.90;;;;;;5057143;28;20500;-81
2022/06/11 07:21:23;;;;;;;1.83;1.07;;;23.60;53.10;;;;;;5054076;28;20446;-81
2022/06/11 07:23:56;;;;;;;1.10;1.00;;;23.60;53.30;;;;;;5050410;28;20458;-81
2022/06/11 07:26:28;;;;;;;1.17;1.07;;;23.60;53.30;;;;;;5059218;28;20977;-81
2022/06/11 07:29:01;;;;;;;1.10;0.90;;;23.60;53.30;;;;;;5059978;28;20879;-81
2022/06/11 07:31:31;;;;;;;0.73;0.67;;;24.60;57.40;;;;;;5052351;28;20515;-81
2022/06/11 07:33:57;;;;;;;0.70;0.67;;;23.60;53.20;;;;;;5057291;28;20501;-81
2022/06/11 07:36:25;;;;;;;1.23;0.67;;;23.70;53.20;;;;;;5053197;28;20435;-81
2022/06/11 07:38:51;;;;;;;0.70;0.70;;;;;;;;;;5053799;28;20442;-81
2022/06/11 07:41:16;;;;;;;1.53;1.03;;;23.90;60.50;;;;;;5056609;28;20457;-81
2022/06/11 07:43:43;;;;;;;0.60;0.57;;;;;;;;;;5059040;28;20501;-81
2022/06/11 07:46:08;;;;;;;0.77;0.60;;;23.40;63.20;;;;;;5053275;28;20181;-81
2022/06/11 07:48:34;;;;;;;1.17;0.70;;;;;;;;;;5052405;28;20426;-81
2022/06/11 07:51:00;;;;;;;0.70;0.70;;;;;;;;;;5051664;28;20235;-80
2022/06/11 07:53:26;;;;;;;2.50;0.80;;;23.80;63.50;;;;;;5052132;28;20498;-79
2022/06/11 07:55:55;;;;;;;0.60;0.60;;;23.60;53.50;;;;;;5052648;28;20411;-81
2022/06/11 07:58:27;;;;;;;0.70;0.60;;;23.60;54.70;;;;;;5048958;28;20180;-81
2022/06/11 08:00:53;;;;;;;0.80;0.80;;;;;;;;;;5049201;28;20470;-81
2022/06/11 08:03:20;;;;;;;0.90;0.90;;;24.10;53.80;;;;;;5049240;28;20430;-81
2022/06/11 08:05:46;;;;;;;1.53;0.93;;;23.90;73.70;;;;;;5046481;28;20437;-81
2022/06/11 08:08:13;;;;;;;0.80;0.60;;;23.70;53.50;;;;;;5047486;28;20439;-81
2022/06/11 08:10:40;;;;;;;1.23;0.80;;;23.80;54.40;;;;;;5053472;28;20485;-81
2022/06/11 08:13:07;;;;;;;1.33;0.97;;;23.70;53.50;;;;;;5052052;28;20485;-81
2022/06/11 08:15:34;;;;;;;5.53;1.07;;;;;;;;;;5043601;28;20495;-81
2022/06/11 08:18:00;;;;;;;0.63;0.63;;;;;;;;;;5052917;28;20416;-82
2022/06/11 08:20:28;;;;;;;0.80;0.80;;;23.50;59.20;;;;;;5052215;28;20431;-82
2022/06/11 08:22:54;;;;;;;1.00;0.90;;;;;;;;;;5049386;28;20427;-82
2022/06/11 08:25:21;;;;;;;1.90;0.80;;;23.70;53.50;;;;;;5051900;28;20426;-82
2022/06/11 08:27:47;;;;;;;2.07;1.43;;;;;;;;;;5051855;28;20568;-82
2022/06/11 08:30:15;;;;;;;0.70;0.70;;;23.70;53.20;;;;;;5051985;28;20494;-82
2022/06/11 08:32:40;;;;;;;0.67;0.67;;;23.50;74.30;;;;;;5051784;28;20415;-82
2022/06/11 08:35:07;;;;;;;1.07;0.57;;;23.80;76.60;;;;;;5035826;28;20458;-80
2022/06/11 08:37:33;;;;;;;1.50;0.80;;;;;;;;;;5045769;28;20253;-82
2022/06/11 08:39:59;;;;;;;1.33;0.80;;;;;;;;;;5049583;28;20402;-82
2022/06/11 08:42:24;;;;;;;0.80;0.80;;;;;;;;;;5050314;28;20427;-82
2022/06/11 08:44:50;;;;;;;0.67;0.67;;;;;;;;;;5045354;28;20803;-82
2022/06/11 08:47:17;;;;;;;4.50;0.90;;;23.80;70.60;;;;;;5049013;28;20645;-82
2022/06/11 08:49:45;;;;;;;0.73;0.73;;;23.40;53.10;;;;;;5049977;28;20813;-82
2022/06/11 08:52:16;;;;;;;1.23;0.87;;;23.60;53.20;;;;;;5052462;28;20493;-77
2022/06/11 08:54:44;;;;;;;1.03;0.80;;;23.70;53.20;;;;;;5047964;28;20914;-81
2022/06/11 08:57:26;;;;;;;1.53;0.80;;;23.80;61.30;;;;;;5045777;28;20435;-82
2022/06/11 08:59:52;;;;;;;0.70;0.60;;;;;;;;;;5049089;28;20430;-82
2022/06/11 09:02:18;;;;;;;0.70;0.60;;;;;;;;;;5043831;28;20842;-82
2022/06/11 09:04:58;;;;;;;0.60;0.60;;;23.70;76.60;;;;;;5047028;28;20438;-81
2022/06/11 09:07:42;;;;;;;0.80;0.70;;;24.30;53.40;;;;;;5045765;28;20192;-82
2022/06/11 09:10:20;;;;;;;0.70;0.70;;;23.70;75.80;;;;;;5050991;28;20495;-81
2022/06/11 09:13:19;;;;;;;2.60;0.97;;;23.60;63.50;;;;;;5048493;28;20426;-82
2022/06/11 09:15:45;;;;;;;0.70;0.70;;;;;;;;;;5057450;28;20518;-82
2022/06/11 09:18:35;;;;;;;1.07;1.07;;;23.80;63.50;;;;;;5053215;28;20414;-82
2022/06/11 09:21:19;;;;;;;0.60;0.60;;;23.40;56.00;;;;;;5050015;28;20898;-82
2022/06/11 09:24:08;;;;;;;0.97;0.80;;;23.70;53.20;;;;;;5050040;28;20421;-82
2022/06/11 09:26:34;;;;;;;0.70;0.60;;;;;;;;;;5046344;28;20447;-82
2022/06/11 09:29:40;;;;;;;0.80;0.77;;;23.70;53.20;;;;;;5049305;28;20435;-82
2022/06/11 09:32:29;;;;;;;1.07;1.00;;;23.70;53.10;;;;;;5051102;28;20228;-81
2022/06/11 09:35:13;;;;;;;0.70;0.70;;;23.80;71.90;;;;;;5051491;28;20426;-81
2022/06/11 09:37:39;;;;;;;0.70;0.70;;;;;;;;;;5037199;28;20899;-80
2022/06/11 09:40:44;;;;;;;0.90;0.80;;;23.70;53.40;;;;;;5048993;28;20476;-81
2022/06/11 09:43:27;;;;;;;0.97;0.60;;;23.50;55.50;;;;;;5050595;28;20480;-80
2022/06/11 09:46:23;;;;;;;2.60;1.00;;;23.70;60.70;;;;;;5048532;28;20414;-80
2022/06/11 09:49:26;;;;;;;0.83;0.80;;;23.70;53.60;;;;;;5050424;28;20423;-80
2022/06/11 09:52:05;;;;;;;0.90;0.90;;;23.10;57.00;;;;;;5051046;28;20497;-80
2022/06/11 09:54:58;;;;;;;1.13;0.67;;;23.60;53.50;;;;;;5050909;28;20902;-81
2022/06/11 09:57:40;;;;;;;1.10;0.67;;;23.70;53.60;;;;;;5049408;28;20431;-81
2022/06/11 10:00:29;;;;;;;0.80;0.80;;;23.70;53.50;;;;;;5049632;28;20620;-82
2022/06/11 10:03:17;;;;;;;1.07;1.03;;;23.60;56.00;;;;;;5041683;28;20477;-82
2022/06/11 10:05:56;;;;;;;1.33;0.67;;;23.80;60.50;;;;;;5044405;28;20435;-82
2022/06/11 10:08:42;;;;;;;0.70;0.70;;;24.60;57.80;;;;;;5046129;28;20787;-82
2022/06/11 10:11:35;;;;;;;2.60;0.90;;;23.70;53.50;;;;;;5026336;28;20566;-82
2022/06/11 10:14:28;;;;;;;3.53;0.80;;;23.70;53.80;;;;;;5050640;28;20818;-82
2022/06/11 10:17:35;;;;;;;1.27;1.00;;;23.60;64.70;;;;;;5048271;28;20418;-82
2022/06/11 10:20:29;;;;;;;1.93;0.97;;;23.80;54.20;;;;;;5005027;28;20423;-83
2022/06/11 10:23:08;;;;;;;2.83;1.47;;;23.80;55.80;;;;;;4998339;28;20808;-83
2022/06/11 10:26:11;;;;;;;2.17;1.03;;;24.10;54.50;;;;;;5022011;28;20418;-84
2022/06/11 10:29:01;;;;;;;5.53;1.40;;;24.00;54.20;;;;;;4997885;28;20428;-83
2022/06/11 10:31:37;;;;;;;1.20;1.10;;;24.00;54.20;;;;;;5046595;28;20454;-84
2022/06/11 10:34:14;;;;;;;3.97;1.50;;;24.70;57.60;;;;;;5051675;28;20395;-84
2022/06/11 10:37:01;;;;;;;4.27;1.53;;;24.10;53.80;;;;;;5046729;28;20428;-84
2022/06/11 10:39:36;;;;;;;3.43;1.37;;;24.10;53.80;;;;;;5055425;28;20503;-81
2022/06/11 10:42:28;;;;;;;1.33;1.20;;;24.20;53.90;;;;;;5041510;28;20499;-83
2022/06/11 10:44:56;;;;;;;3.47;1.60;;;24.20;53.80;;;;;;5049817;28;20484;-83
2022/06/11 10:47:21;;;;;;;5.70;1.27;;;;;;;;;;5048950;28;20812;-83
2022/06/11 10:49:55;;;;;;;2.77;1.60;;;24.30;53.80;;;;;;5049571;28;20419;-84
2022/06/11 10:52:58;;;;;;;4.53;1.53;;;24.10;61.50;;;;;;5049684;28;20407;-84
2022/06/11 10:55:32;;;;;;;1.67;1.23;;;23.60;53.00;;;;;;5049871;28;20520;-84
2022/06/11 10:58:08;;;;;;;4.70;1.57;;;24.60;53.80;;;;;;5047688;28;20422;-81
2022/06/11 11:00:53;;;;;;;1.53;1.00;;;25.50;53.90;;;;;;5037588;28;20441;-82
2022/06/11 11:03:48;;;;;;;3.73;1.63;;;24.30;53.00;;;;;;5049644;28;20431;-80
2022/06/11 11:06:27;;;;;;;3.20;1.40;;;24.10;76.10;;;;;;5047887;28;20442;-80
2022/06/11 11:08:58;;;;;;;1.60;1.20;;;24.10;75.60;;;;;;5048621;28;20399;-81
2022/06/11 11:11:27;;;;;;;1.57;1.13;;;24.10;65.30;;;;;;5048210;28;20462;-80
2022/06/11 11:14:07;;;;;;;2.50;1.17;;;24.30;52.80;;;;;;5048319;28;21000;-80
2022/06/11 11:16:37;;;;;;;1.07;1.07;;;24.60;52.90;;;;;;5047299;28;20873;-80
2022/06/11 11:19:32;;;;;;;1.47;1.23;;;24.30;52.40;;;;;;5047429;28;20502;-80
2022/06/11 11:22:15;;;;;;;2.30;1.07;;;24.30;52.80;;;;;;5049998;28;20450;-80
2022/06/11 11:24:46;;;;;;;2.60;0.70;;;24.20;52.40;;;;;;5035189;28;20528;-80
2022/06/11 11:27:22;;;;;;;2.33;1.00;;;24.40;57.60;;;;;;5054577;28;20465;-81
2022/06/11 11:29:50;;;;;;;2.17;0.90;;;;;;;;;;5054064;28;21107;-80
2022/06/11 11:32:34;;;;;;;1.00;1.00;;;24.30;53.20;;;;;;5053871;28;20403;-81
2022/06/11 11:35:18;;;;;;;2.73;0.80;;;24.30;52.20;;;;;;5053561;28;20436;-81
2022/06/11 11:37:46;;;;;;;1.67;1.07;;;24.40;54.30;;;;;;5054030;28;20395;-81
2022/06/11 11:40:31;;;;;;;2.77;1.17;;;24.30;52.00;;;;;;5053972;28;20469;-80
2022/06/11 11:43:02;;;;;;;1.37;0.90;;;24.40;70.30;;;;;;5053999;28;20776;-81
2022/06/11 11:45:40;;;;;;;1.50;1.10;;;24.40;61.40;;;;;;5053248;28;20484;-80
2022/06/11 11:48:07;;;;;;;0.70;0.60;;;24.20;52.10;;;;;;5054333;28;20389;-80
2022/06/11 11:50:37;;;;;;;1.30;1.20;;;24.90;52.40;;;;;;5053903;28;20967;-80
2022/06/11 11:53:11;;;;;;;1.70;0.83;;;23.80;51.70;;;;;;5054159;28;20398;-80
2022/06/11 11:55:40;;;;;;;3.27;1.20;;;24.30;52.00;;;;;;5054486;28;21083;-81
2022/06/11 11:58:32;;;;;;;0.93;0.80;;;24.30;51.80;;;;;;5054513;28;20416;-80
2022/06/11 12:01:05;;;;;;;2.43;0.93;;;24.50;51.90;;;;;;5054641;28;20441;-80
2022/06/11 12:03:39;;;;;;;0.60;0.57;;;24.40;51.70;;;;;;5053247;28;20450;-81
2022/06/11 12:06:07;;;;;;;5.67;1.00;;;23.80;54.80;;;;;;5049338;28;20553;-81
2022/06/11 12:08:43;;;;;;;1.80;0.90;;;24.50;66.30;;;;;;5047366;28;20898;-80
2022/06/11 12:11:29;;;;;;;1.90;0.80;;;24.20;52.10;;;;;;5048357;28;20992;-81
2022/06/11 12:14:16;;;;;;;2.40;0.73;;;24.40;51.60;;;;;;5051004;28;20490;-81
2022/06/11 12:16:51;;;;;;;0.90;0.90;;;24.40;51.70;;;;;;5047452;28;20435;-81
2022/06/11 12:19:17;;;;;;;1.53;1.10;;;;;;;;;;5053323;28;20398;-81
2022/06/11 12:21:47;;;;;;;1.10;0.93;;;24.50;60.90;;;;;;5061886;28;20449;-81
2022/06/11 12:24:17;;;;;;;0.80;0.80;;;24.50;62.80;;;;;;5073789;28;20424;-80
2022/06/11 12:26:51;;;;;;;1.83;0.83;;;24.50;74.70;;;;;;5065984;28;20423;-81
2022/06/11 12:29:27;;;;;;;6.30;1.00;;;24.50;51.50;;;;;;5053468;28;20423;-81
2022/06/11 12:31:58;;;;;;;0.70;0.70;;;24.50;55.30;;;;;;5051361;28;20462;-80
2022/06/11 12:34:28;;;;;;;0.63;0.50;;;24.50;51.50;;;;;;5053636;28;20482;-80
2022/06/11 12:37:09;;;;;;;2.33;0.70;;;24.50;51.30;;;;;;5034640;28;20950;-80
2022/06/11 12:39:50;;;;;;;1.27;0.63;;;24.50;51.20;;;;;;5045861;28;20829;-80
2022/06/11 12:42:31;;;;;;;2.13;0.90;;;24.50;51.30;;;;;;5053574;28;20459;-81
2022/06/11 12:45:02;;;;;;;0.50;0.50;;;24.60;51.40;;;;;;5052636;28;20840;-80
2022/06/11 12:47:46;;;;;;;0.70;0.70;;;24.70;72.80;;;;;;5053351;28;20427;-81
2022/06/11 12:50:33;;;;;;;0.90;0.67;;;24.60;72.80;;;;;;5053005;28;20462;-81
2022/06/11 12:53:21;;;;;;;0.97;0.53;;;24.40;51.20;;;;;;5053021;28;20419;-81
2022/06/11 12:56:05;;;;;;;1.23;0.50;;;24.70;74.50;;;;;;5053371;28;20421;-81
2022/06/11 12:58:48;;;;;;;0.50;0.50;;;24.90;55.70;;;;;;5053668;28;20391;-81
2022/06/11 13:01:27;;;;;;;2.37;0.67;;;24.60;52.20;;;;;;5051374;28;20960;-81
2022/06/11 13:04:14;;;;;;;0.70;0.40;;;24.70;51.30;;;;;;5051418;28;20477;-81
2022/06/11 13:07:18;;;;;;;0.50;0.40;;;24.70;51.30;;;;;;5050999;28;20434;-81
2022/06/11 13:09:58;;;;;;;0.70;0.50;;;24.70;51.50;;;;;;5050791;28;20909;-80
2022/06/11 13:12:42;;;;;;;0.73;0.73;;;24.70;51.20;;;;;;5051237;28;20383;-80
2022/06/11 13:15:30;;;;;;;1.10;0.63;;;24.70;51.20;;;;;;5050866;28;20486;-80
2022/06/11 13:18:23;;;;;;;0.77;0.70;;;24.60;61.30;;;;;;5050959;28;20422;-80
2022/06/11 13:21:10;;;;;;;0.70;0.50;;;24.70;51.10;;;;;;5049107;28;20443;-80
2022/06/11 13:23:57;;;;;;;2.37;0.70;;;24.90;51.90;;;;;;5050942;28;20422;-80
2022/06/11 13:26:51;;;;;;;0.60;0.53;;;24.70;51.20;;;;;;5051176;28;20411;-80
2022/06/11 13:29:59;;;;;;;1.83;1.00;;;24.90;63.50;;;;;;5051170;28;20446;-80
2022/06/11 13:33:09;;;;;;;0.70;0.50;;;24.70;51.20;;;;;;5051692;28;20436;-80
2022/06/11 13:35:39;;;;;;;0.70;0.70;;;24.50;51.50;;;;;;5031329;28;20797;-80
2022/06/11 13:38:19;;;;;;;0.50;0.50;;;25.00;52.10;;;;;;5051927;28;20410;-80
2022/06/11 13:41:03;;;;;;;0.80;0.60;;;24.80;54.10;;;;;;5051272;28;20447;-81
2022/06/11 13:43:30;;;;;;;0.60;0.60;;;;;;;;;;5047897;28;20458;-81